Terminal Aerodrome Forecast
Issued by NWS

Current Version | Previous Version | Text Only | Print | Product List | Glossary On
Versions: 1 2 3 4 5 6 7 8 9 10 11 12 13
000
FTUS46 KOTX 271726
TAFMWH
TAF
KMWH 271726Z 2718/2818 23009G16KT P6SM FEW120
     FM272000 22012G20KT P6SM SCT060
     FM280200 26015G23KT P6SM FEW050 SCT200
     FM280600 23005KT P6SM SCT150
     FM281200 23005KT P6SM BKN250=

USA.gov is the U.S. government's official web portal to all federal, state and local government web resources and services.